Time;durP1;ratioP1;P1;durP2;ratioP2;P2;SDS_P1;SDS_P2;PMS_P1;PMS_P2;Temp;Humidity;BMP_temperature;BMP_pressure;BME280_temperature;BME280_humidity;BME280_pressure;Samples;Min_cycle;Max_cycle;Signal;HPM_P1;HPM_P2
2023/05/27 00:00:45;;;;;;;2.40;1.80;;;21.70;71.00;;;;;;5003560;28;20823;-47
2023/05/27 00:03:11;;;;;;;2.60;1.80;;;21.80;70.40;;;;;;5012982;28;20455;-44
2023/05/27 00:05:38;;;;;;;3.00;2.70;;;21.80;71.00;;;;;;5007449;28;20467;-47
2023/05/27 00:08:05;;;;;;;4.83;2.70;;;21.70;70.00;;;;;;5012709;28;20579;-45
2023/05/27 00:10:32;;;;;;;2.40;1.50;;;21.80;70.50;;;;;;5010178;28;20460;-47
2023/05/27 00:12:59;;;;;;;2.47;1.50;;;21.70;70.70;;;;;;5008844;28;20475;-47
2023/05/27 00:15:27;;;;;;;3.83;2.00;;;21.70;70.90;;;;;;5010385;28;20459;-45
2023/05/27 00:17:54;;;;;;;2.93;2.13;;;21.90;71.50;;;;;;5004980;28;20538;-47
2023/05/27 00:20:21;;;;;;;2.60;1.90;;;21.70;71.40;;;;;;5004005;28;20546;-47
2023/05/27 00:22:49;;;;;;;3.27;2.13;;;21.70;71.60;;;;;;5008622;28;20981;-46
2023/05/27 00:25:16;;;;;;;3.60;1.90;;;21.80;71.80;;;;;;5009119;28;20979;-47
2023/05/27 00:27:43;;;;;;;2.85;1.58;;;21.70;71.70;;;;;;5012173;28;20439;-45
2023/05/27 00:30:10;;;;;;;3.10;2.22;;;21.70;72.10;;;;;;5005875;28;20229;-48
2023/05/27 00:32:38;;;;;;;3.17;1.83;;;21.70;72.20;;;;;;5008752;28;20854;-46
2023/05/27 00:35:06;;;;;;;3.85;2.42;;;21.80;71.70;;;;;;5007270;28;20675;-47
2023/05/27 00:37:32;;;;;;;3.40;2.33;;;21.70;70.80;;;;;;5010037;28;20722;-45
2023/05/27 00:39:59;;;;;;;2.60;1.80;;;21.70;71.00;;;;;;5010456;28;20193;-49
2023/05/27 00:42:26;;;;;;;3.50;2.78;;;21.70;71.60;;;;;;5008884;28;20834;-46
2023/05/27 00:44:53;;;;;;;2.53;2.03;;;21.70;71.50;;;;;;5009840;28;20656;-47
2023/05/27 00:47:20;;;;;;;2.60;2.40;;;21.70;70.50;;;;;;5010347;28;20251;-48
2023/05/27 00:49:50;;;;;;;1.83;1.50;;;21.70;71.10;;;;;;5007895;28;20513;-47
2023/05/27 00:52:17;;;;;;;3.47;2.47;;;21.70;71.70;;;;;;5012074;28;20197;-46
2023/05/27 00:54:44;;;;;;;3.47;2.77;;;21.60;71.50;;;;;;5010297;28;20568;-47
2023/05/27 00:57:10;;;;;;;3.25;1.65;;;21.70;70.80;;;;;;5007482;28;20943;-48
2023/05/27 00:59:37;;;;;;;1.90;1.57;;;21.70;71.20;;;;;;5006977;28;20669;-46
2023/05/27 01:02:04;;;;;;;3.43;1.90;;;21.60;71.40;;;;;;5010966;28;20444;-49
2023/05/27 01:04:31;;;;;;;2.93;1.80;;;21.60;71.60;;;;;;5006009;28;20462;-47
2023/05/27 01:07:11;;;;;;;2.53;2.07;;;21.60;71.90;;;;;;5008642;28;20460;-47
2023/05/27 01:09:43;;;;;;;3.78;1.67;;;21.60;72.30;;;;;;5010505;28;20486;-47
2023/05/27 01:12:19;;;;;;;2.80;2.25;;;21.60;72.30;;;;;;5006614;28;20283;-47
2023/05/27 01:14:47;;;;;;;2.28;1.52;;;21.60;73.40;;;;;;5008624;28;20200;-46
2023/05/27 01:17:15;;;;;;;2.33;2.00;;;21.60;72.90;;;;;;5009022;28;20201;-47
2023/05/27 01:19:45;;;;;;;3.63;2.00;;;21.60;72.20;;;;;;5004868;28;20464;-47
2023/05/27 01:22:15;;;;;;;1.83;1.40;;;21.60;71.00;;;;;;5011158;28;20514;-48
2023/05/27 01:24:43;;;;;;;4.03;1.93;;;21.60;71.70;;;;;;4999810;28;20484;-47
2023/05/27 01:27:11;;;;;;;5.18;1.90;;;21.50;71.90;;;;;;5008440;28;20464;-46
2023/05/27 01:29:39;;;;;;;2.55;2.28;;;21.60;72.10;;;;;;5008054;28;20624;-47
2023/05/27 01:32:11;;;;;;;3.15;2.28;;;21.70;72.60;;;;;;5009640;28;20688;-48
2023/05/27 01:34:42;;;;;;;3.38;1.80;;;21.60;72.70;;;;;;4996102;28;20222;-47
2023/05/27 01:37:14;;;;;;;2.63;1.93;;;21.50;72.90;;;;;;5001581;28;20197;-46
2023/05/27 01:39:41;;;;;;;2.17;1.65;;;21.60;73.20;;;;;;5003986;28;20503;-46
2023/05/27 01:42:09;;;;;;;2.17;1.90;;;21.50;73.20;;;;;;5008375;28;20196;-46
2023/05/27 01:44:37;;;;;;;2.00;1.50;;;21.60;73.50;;;;;;5004577;28;20525;-47
2023/05/27 01:47:04;;;;;;;1.98;1.80;;;21.50;73.80;;;;;;5007018;28;20193;-47
2023/05/27 01:49:31;;;;;;;2.30;1.80;;;21.60;72.20;;;;;;4996834;28;20197;-47
2023/05/27 01:51:58;;;;;;;2.22;1.52;;;21.50;71.20;;;;;;5011256;28;20502;-45
2023/05/27 01:54:24;;;;;;;2.70;2.23;;;21.50;71.50;;;;;;5009700;28;20212;-46
2023/05/27 01:56:51;;;;;;;2.35;1.80;;;21.40;71.50;;;;;;5005875;28;20521;-47
2023/05/27 01:59:19;;;;;;;2.85;1.75;;;21.50;70.70;;;;;;5004260;28;20193;-44
2023/05/27 02:01:46;;;;;;;2.13;1.93;;;21.50;71.00;;;;;;5004195;28;20677;-47
2023/05/27 02:04:12;;;;;;;2.85;1.90;;;21.50;71.40;;;;;;5005758;28;21801;-46
2023/05/27 02:06:40;;;;;;;2.95;1.65;;;21.50;71.60;;;;;;5007915;28;20248;-47
2023/05/27 02:09:07;;;;;;;2.80;1.67;;;21.50;71.70;;;;;;5007046;28;20287;-48
2023/05/27 02:11:33;;;;;;;1.90;1.80;;;21.50;72.00;;;;;;5009840;28;20467;-47
2023/05/27 02:14:01;;;;;;;2.30;2.10;;;21.40;72.00;;;;;;5007329;28;20271;-48
2023/05/27 02:16:30;;;;;;;2.83;1.70;;;21.30;72.00;;;;;;5000883;28;20194;-48
2023/05/27 02:18:56;;;;;;;2.57;1.60;;;21.40;71.90;;;;;;5007232;28;20189;-47
2023/05/27 02:21:23;;;;;;;2.17;1.97;;;21.50;71.00;;;;;;5007152;28;20859;-47
2023/05/27 02:23:50;;;;;;;1.77;1.30;;;21.40;71.20;;;;;;5007350;28;20484;-44
2023/05/27 02:26:16;;;;;;;2.45;1.50;;;21.40;71.50;;;;;;5008978;28;20200;-45
2023/05/27 02:28:43;;;;;;;2.83;1.90;;;21.30;71.50;;;;;;5009655;28;20201;-47
2023/05/27 02:31:10;;;;;;;3.35;2.13;;;21.40;71.80;;;;;;5002364;28;20197;-47
2023/05/27 02:33:38;;;;;;;1.95;1.60;;;21.50;72.10;;;;;;5007900;28;20687;-46
2023/05/27 02:36:05;;;;;;;2.20;1.48;;;21.30;72.70;;;;;;4999482;28;20255;-47
2023/05/27 02:38:32;;;;;;;3.47;1.63;;;21.40;72.30;;;;;;5004744;28;20809;-47
2023/05/27 02:40:59;;;;;;;3.38;2.08;;;21.40;72.40;;;;;;5008653;28;20271;-44
2023/05/27 02:43:25;;;;;;;1.70;1.40;;;21.30;72.40;;;;;;5006343;28;20263;-48
2023/05/27 02:45:52;;;;;;;1.85;1.60;;;21.40;72.80;;;;;;5004241;28;20200;-47
2023/05/27 02:48:19;;;;;;;2.75;1.80;;;21.40;72.90;;;;;;5012769;28;20251;-46
2023/05/27 02:50:47;;;;;;;3.30;1.90;;;21.30;72.90;;;;;;5011885;28;20204;-48
2023/05/27 02:53:14;;;;;;;2.60;2.05;;;21.30;73.00;;;;;;5013206;28;20277;-46
2023/05/27 02:55:41;;;;;;;1.90;1.42;;;21.40;73.40;;;;;;5006266;28;20477;-45
2023/05/27 02:58:08;;;;;;;2.40;2.20;;;21.30;73.50;;;;;;5010101;28;20193;-45
2023/05/27 03:00:35;;;;;;;2.20;2.00;;;21.30;73.70;;;;;;5008188;28;20251;-47
2023/05/27 03:03:04;;;;;;;3.10;1.83;;;21.30;73.90;;;;;;5011405;28;20208;-47
2023/05/27 03:05:30;;;;;;;3.55;2.05;;;21.30;74.00;;;;;;5006759;28;20204;-44
2023/05/27 03:07:59;;;;;;;2.08;1.70;;;21.30;74.00;;;;;;5013780;28;20601;-45
2023/05/27 03:10:25;;;;;;;1.55;1.42;;;21.30;74.10;;;;;;5011834;28;20271;-45
2023/05/27 03:12:55;;;;;;;3.50;2.17;;;21.30;74.20;;;;;;5012164;28;20201;-48
2023/05/27 03:15:22;;;;;;;2.60;1.50;;;21.30;74.30;;;;;;5002772;28;20226;-44
2023/05/27 03:17:49;;;;;;;2.40;1.60;;;21.30;74.60;;;;;;5011352;28;20656;-48
2023/05/27 03:20:16;;;;;;;1.92;1.55;;;21.30;74.50;;;;;;5006611;28;20221;-48
2023/05/27 03:22:43;;;;;;;2.50;1.65;;;21.30;73.20;;;;;;5012685;28;20263;-46
2023/05/27 03:25:12;;;;;;;1.95;1.33;;;21.30;72.20;;;;;;5010881;28;20212;-48
2023/05/27 03:27:38;;;;;;;2.38;1.77;;;21.30;72.80;;;;;;5009049;28;20201;-46
2023/05/27 03:30:07;;;;;;;2.40;1.55;;;21.20;73.10;;;;;;5008021;28;20205;-46
2023/05/27 03:32:34;;;;;;;1.35;1.25;;;21.30;73.40;;;;;;5013302;28;20197;-48
2023/05/27 03:35:00;;;;;;;2.45;1.55;;;21.30;73.70;;;;;;5008493;28;20221;-46
2023/05/27 03:37:27;;;;;;;1.70;1.40;;;21.20;73.70;;;;;;5008514;28;20200;-47
2023/05/27 03:39:54;;;;;;;3.58;1.65;;;21.30;74.00;;;;;;5005929;28;20197;-47
2023/05/27 03:42:22;;;;;;;1.60;1.50;;;21.20;74.10;;;;;;5012001;28;20197;-47
2023/05/27 03:44:48;;;;;;;1.98;1.73;;;21.40;74.30;;;;;;5009497;28;20668;-47
2023/05/27 03:47:17;;;;;;;1.88;1.30;;;21.30;74.50;;;;;;5012682;28;20196;-48
2023/05/27 03:49:44;;;;;;;2.03;1.58;;;21.20;74.30;;;;;;5008548;28;20227;-47
2023/05/27 03:52:11;;;;;;;2.90;1.90;;;21.20;74.50;;;;;;5010079;28;20193;-47
2023/05/27 03:54:37;;;;;;;1.30;1.15;;;21.20;74.80;;;;;;5007716;28;20231;-46
2023/05/27 03:57:05;;;;;;;2.83;1.67;;;21.30;74.40;;;;;;5010612;28;20623;-46
2023/05/27 03:59:33;;;;;;;2.10;1.85;;;21.20;73.90;;;;;;5009245;28;20269;-46
2023/05/27 04:02:00;;;;;;;1.80;1.50;;;21.20;73.90;;;;;;5012159;28;20204;-46
2023/05/27 04:04:27;;;;;;;2.33;1.90;;;21.20;73.40;;;;;;5008371;28;20197;-47
2023/05/27 04:06:55;;;;;;;3.05;1.60;;;21.20;73.00;;;;;;5011433;28;20533;-46
2023/05/27 04:09:21;;;;;;;1.75;1.30;;;21.20;73.50;;;;;;5006001;28;20196;-47
2023/05/27 04:11:48;;;;;;;2.15;1.58;;;21.20;73.90;;;;;;5010075;28;20201;-46
2023/05/27 04:14:15;;;;;;;3.60;1.52;;;21.10;73.90;;;;;;5011345;28;20247;-47
2023/05/27 04:16:43;;;;;;;1.75;1.42;;;21.20;74.20;;;;;;5007914;28;20545;-46
2023/05/27 04:19:10;;;;;;;2.65;1.48;;;21.20;74.30;;;;;;5010728;28;20232;-46
2023/05/27 04:21:37;;;;;;;2.03;1.67;;;21.10;73.90;;;;;;5009439;28;20287;-47
2023/05/27 04:24:04;;;;;;;2.30;1.60;;;21.10;73.50;;;;;;5008349;28;20649;-46
2023/05/27 04:26:31;;;;;;;1.67;1.20;;;21.30;74.10;;;;;;5002070;28;20200;-46
2023/05/27 04:28:59;;;;;;;2.40;1.80;;;21.20;75.10;;;;;;5010084;28;20232;-47
2023/05/27 04:31:28;;;;;;;1.55;1.23;;;21.40;74.50;;;;;;5007620;28;20201;-47
2023/05/27 04:33:56;;;;;;;3.17;1.65;;;21.20;74.40;;;;;;5003744;28;20256;-46
2023/05/27 04:36:24;;;;;;;2.10;1.55;;;21.30;74.50;;;;;;5007652;28;20200;-48
2023/05/27 04:38:51;;;;;;;2.25;1.60;;;21.10;74.40;;;;;;5008059;28;20613;-45
2023/05/27 04:41:21;;;;;;;2.53;1.98;;;21.10;74.30;;;;;;5010960;28;20189;-46
2023/05/27 04:43:48;;;;;;;1.60;1.40;;;21.20;74.50;;;;;;5009469;28;20201;-47
2023/05/27 04:46:15;;;;;;;2.03;1.60;;;21.10;74.00;;;;;;5004274;28;20679;-47
2023/05/27 04:48:44;;;;;;;1.77;1.67;;;21.20;73.60;;;;;;5007121;28;20308;-46
2023/05/27 04:51:15;;;;;;;2.47;1.88;;;21.10;73.70;;;;;;5005027;28;20232;-45
2023/05/27 04:53:42;;;;;;;1.60;1.33;;;21.10;73.20;;;;;;5006996;28;20212;-47
2023/05/27 04:56:09;;;;;;;1.90;1.40;;;21.10;73.60;;;;;;5010371;28;20197;-46
2023/05/27 04:58:36;;;;;;;2.40;1.48;;;21.00;73.70;;;;;;5010161;28;20206;-48
2023/05/27 05:01:04;;;;;;;1.80;1.70;;;21.10;74.10;;;;;;5007592;28;20197;-48
2023/05/27 05:03:39;;;;;;;2.30;1.80;;;21.10;74.30;;;;;;4998632;28;20208;-45
2023/05/27 05:06:06;;;;;;;1.85;1.50;;;21.20;74.10;;;;;;5005031;28;20189;-47
2023/05/27 05:08:34;;;;;;;1.63;1.52;;;21.10;73.60;;;;;;5005539;28;20196;-46
2023/05/27 05:11:01;;;;;;;2.28;1.42;;;21.20;74.10;;;;;;5010627;28;20205;-46
2023/05/27 05:13:28;;;;;;;2.03;1.48;;;21.10;74.20;;;;;;5000539;28;20201;-49
2023/05/27 05:15:55;;;;;;;1.60;1.38;;;21.10;74.10;;;;;;5010375;28;20220;-46
2023/05/27 05:18:22;;;;;;;2.28;1.95;;;21.00;73.10;;;;;;5011576;28;20656;-46
2023/05/27 05:20:49;;;;;;;3.22;1.55;;;21.20;73.90;;;;;;5007028;28;20204;-47
2023/05/27 05:23:15;;;;;;;2.00;1.40;;;21.00;73.90;;;;;;5008080;28;20222;-47
2023/05/27 05:25:43;;;;;;;2.65;2.05;;;21.20;74.30;;;;;;5009343;28;20284;-46
2023/05/27 05:28:10;;;;;;;1.90;1.30;;;21.20;74.60;;;;;;5011538;28;20193;-47
2023/05/27 05:30:37;;;;;;;1.80;1.70;;;21.10;74.60;;;;;;5006652;28;20275;-46
2023/05/27 05:33:04;;;;;;;1.65;1.55;;;21.10;74.70;;;;;;5006806;28;20197;-50
2023/05/27 05:35:31;;;;;;;2.28;1.60;;;21.20;74.90;;;;;;5008502;28;20225;-46
2023/05/27 05:37:57;;;;;;;1.75;1.65;;;21.20;74.90;;;;;;5007910;28;20347;-46
2023/05/27 05:40:24;;;;;;;2.88;1.70;;;21.10;74.90;;;;;;5009664;28;20622;-47
2023/05/27 05:42:52;;;;;;;1.25;1.15;;;21.30;75.20;;;;;;5007272;28;20197;-46
2023/05/27 05:45:19;;;;;;;2.28;1.23;;;21.20;75.30;;;;;;5003647;28;20204;-47
2023/05/27 05:47:46;;;;;;;2.15;1.63;;;21.20;75.40;;;;;;5006534;28;20200;-48
2023/05/27 05:50:12;;;;;;;1.75;1.45;;;21.20;75.40;;;;;;4999965;28;20259;-47
2023/05/27 05:52:39;;;;;;;2.28;1.63;;;21.10;75.20;;;;;;5006976;28;20200;-46
2023/05/27 05:55:06;;;;;;;1.60;1.38;;;21.20;74.60;;;;;;5007743;28;20212;-49
2023/05/27 05:57:33;;;;;;;1.88;1.65;;;21.20;74.20;;;;;;5009583;28;20200;-46
2023/05/27 06:00:01;;;;;;;2.30;1.73;;;21.20;74.20;;;;;;4999571;28;20205;-50
2023/05/27 06:02:28;;;;;;;1.83;1.63;;;21.10;74.50;;;;;;4997196;28;20209;-49
2023/05/27 06:04:54;;;;;;;2.67;1.63;;;21.20;74.80;;;;;;4999216;28;20197;-47
2023/05/27 06:07:21;;;;;;;2.72;1.55;;;21.30;75.00;;;;;;5006523;28;20657;-45
2023/05/27 06:09:49;;;;;;;2.58;1.92;;;21.20;74.30;;;;;;5005813;28;20204;-46
2023/05/27 06:12:15;;;;;;;2.00;1.60;;;21.20;74.70;;;;;;5009690;28;20197;-48
2023/05/27 06:14:42;;;;;;;1.92;1.55;;;21.30;75.10;;;;;;5003867;28;20223;-45
2023/05/27 06:17:10;;;;;;;2.55;2.35;;;21.40;75.10;;;;;;5009009;28;20205;-47
2023/05/27 06:19:36;;;;;;;1.60;1.30;;;21.30;74.50;;;;;;5002964;28;20205;-47
2023/05/27 06:22:04;;;;;;;2.97;1.70;;;21.40;75.00;;;;;;5003420;28;20460;-46
2023/05/27 06:24:31;;;;;;;1.83;1.20;;;21.30;74.10;;;;;;5007238;28;20570;-46
2023/05/27 06:26:58;;;;;;;1.88;1.33;;;21.30;74.70;;;;;;5008787;28;20463;-46
2023/05/27 06:29:25;;;;;;;2.10;1.50;;;21.30;74.80;;;;;;5005363;28;20680;-47
2023/05/27 06:31:51;;;;;;;2.30;1.60;;;21.50;75.40;;;;;;4999731;28;20448;-45
2023/05/27 06:34:19;;;;;;;1.70;1.33;;;21.30;75.20;;;;;;4999505;28;20202;-46
2023/05/27 06:36:48;;;;;;;2.20;1.38;;;21.50;75.40;;;;;;5003795;28;20490;-46
2023/05/27 06:39:15;;;;;;;1.85;1.33;;;21.20;76.00;;;;;;5008851;28;20197;-46
2023/05/27 06:41:42;;;;;;;1.90;1.30;;;21.40;75.80;;;;;;5003771;28;20602;-46
2023/05/27 06:44:08;;;;;;;2.03;1.67;;;21.40;75.90;;;;;;5006839;28;20928;-48
2023/05/27 06:46:35;;;;;;;1.73;1.33;;;21.40;75.90;;;;;;5007570;28;20200;-47
2023/05/27 06:49:05;;;;;;;1.80;1.60;;;21.40;76.10;;;;;;5008769;28;20505;-47
2023/05/27 06:51:33;;;;;;;2.63;1.50;;;21.40;75.80;;;;;;5003385;28;20807;-46
2023/05/27 06:54:00;;;;;;;2.88;1.50;;;21.40;75.30;;;;;;5007527;28;20467;-46
2023/05/27 06:56:26;;;;;;;3.05;1.65;;;21.40;75.60;;;;;;5006732;28;20216;-46
2023/05/27 06:58:53;;;;;;;1.83;1.38;;;21.50;75.70;;;;;;5008576;28;20197;-45
2023/05/27 07:01:20;;;;;;;1.98;1.73;;;21.50;75.70;;;;;;4997248;28;20244;-47
2023/05/27 07:03:47;;;;;;;2.10;1.50;;;21.50;76.00;;;;;;5009709;28;20255;-46
2023/05/27 07:06:13;;;;;;;2.07;1.30;;;21.50;75.90;;;;;;5005866;28;20463;-47
2023/05/27 07:08:41;;;;;;;2.65;1.50;;;21.50;75.70;;;;;;5005730;28;20521;-46
2023/05/27 07:11:08;;;;;;;1.67;1.40;;;21.30;75.10;;;;;;5003352;28;20204;-47
2023/05/27 07:13:35;;;;;;;1.60;1.23;;;21.50;75.50;;;;;;5007951;28;20475;-46
2023/05/27 07:16:01;;;;;;;1.60;1.27;;;21.50;75.80;;;;;;5001187;28;20484;-46
2023/05/27 07:18:28;;;;;;;4.13;1.83;;;21.40;75.80;;;;;;5005239;28;20515;-50
2023/05/27 07:20:55;;;;;;;2.53;1.27;;;21.40;76.00;;;;;;5001970;28;20547;-47
2023/05/27 07:23:21;;;;;;;4.32;1.65;;;21.50;76.20;;;;;;5004798;28;20220;-47
2023/05/27 07:25:49;;;;;;;1.70;1.20;;;21.50;76.10;;;;;;5006412;28;20205;-47
2023/05/27 07:28:16;;;;;;;2.40;1.73;;;21.60;76.30;;;;;;5008002;28;20268;-46
2023/05/27 07:30:43;;;;;;;2.15;1.40;;;21.50;76.20;;;;;;5006349;28;21692;-46
2023/05/27 07:33:10;;;;;;;1.70;1.40;;;21.50;76.20;;;;;;5006488;28;20732;-48
2023/05/27 07:35:36;;;;;;;2.63;1.43;;;21.50;76.40;;;;;;5010810;28;20483;-46
2023/05/27 07:38:03;;;;;;;2.23;1.30;;;21.50;76.50;;;;;;5010107;28;20479;-49
2023/05/27 07:40:30;;;;;;;1.60;1.35;;;21.50;76.50;;;;;;5009590;28;20463;-51
2023/05/27 07:42:58;;;;;;;1.40;1.27;;;21.60;76.60;;;;;;5010999;28;20263;-47
2023/05/27 07:45:25;;;;;;;2.17;1.50;;;21.70;76.70;;;;;;5000122;28;20193;-46
2023/05/27 07:47:52;;;;;;;2.30;1.33;;;21.60;76.60;;;;;;5011043;28;20466;-47
2023/05/27 07:50:18;;;;;;;1.60;1.40;;;21.50;77.30;;;;;;5008029;28;20255;-46
2023/05/27 07:52:46;;;;;;;2.33;1.40;;;21.60;76.60;;;;;;5008100;28;20464;-46
2023/05/27 07:55:13;;;;;;;1.70;1.50;;;21.60;76.60;;;;;;5010375;28;20490;-47
2023/05/27 07:57:41;;;;;;;1.83;1.55;;;21.60;76.70;;;;;;5004514;28;20526;-47
2023/05/27 08:00:10;;;;;;;3.70;1.10;;;21.60;76.80;;;;;;5008694;28;20660;-48
2023/05/27 08:02:37;;;;;;;1.40;1.13;;;21.70;76.00;;;;;;5003722;28;20872;-46
2023/05/27 08:05:04;;;;;;;1.93;1.60;;;21.60;75.30;;;;;;5008572;28;20468;-46
2023/05/27 08:07:31;;;;;;;2.37;1.50;;;21.60;75.50;;;;;;5010327;28;20547;-47
2023/05/27 08:09:58;;;;;;;1.70;1.40;;;21.60;75.70;;;;;;5005149;28;20558;-47
2023/05/27 08:12:25;;;;;;;3.97;1.75;;;21.70;75.90;;;;;;5006494;28;20463;-46
2023/05/27 08:14:52;;;;;;;1.30;1.20;;;21.70;76.00;;;;;;5004653;28;20371;-46
2023/05/27 08:17:20;;;;;;;1.50;1.20;;;21.60;75.90;;;;;;5007658;28;20975;-47
2023/05/27 08:19:47;;;;;;;1.50;1.27;;;21.60;76.00;;;;;;5003897;28;20464;-47
2023/05/27 08:22:14;;;;;;;2.55;1.25;;;21.60;76.30;;;;;;5009242;28;20856;-47
2023/05/27 08:24:41;;;;;;;4.10;1.67;;;21.70;76.40;;;;;;5010952;28;20225;-46
2023/05/27 08:27:16;;;;;;;1.97;1.47;;;21.80;76.50;;;;;;5010206;28;20526;-46
2023/05/27 09:52:19;;;;;;;5.50;2.17;;;21.80;75.30;;;;;;4998310;28;20946;-47
2023/05/27 09:54:46;;;;;;;5.00;2.57;;;21.80;75.40;;;;;;5005548;28;20456;-45
2023/05/27 09:57:14;;;;;;;4.50;2.17;;;21.80;75.20;;;;;;5010534;28;20443;-47
2023/05/27 09:59:41;;;;;;;6.27;2.33;;;21.80;74.60;;;;;;5009387;28;20497;-46
2023/05/27 10:02:08;;;;;;;2.73;2.20;;;21.80;75.80;;;;;;4998275;28;20455;-45
2023/05/27 10:04:35;;;;;;;4.40;2.33;;;21.80;75.30;;;;;;5000807;28;20487;-46
2023/05/27 10:07:03;;;;;;;3.50;2.73;;;21.80;75.40;;;;;;5009714;28;20472;-45
2023/05/27 10:09:31;;;;;;;7.67;2.70;;;21.80;75.40;;;;;;5001050;28;20464;-47
2023/05/27 10:11:58;;;;;;;3.20;1.97;;;21.80;75.50;;;;;;5006524;28;20454;-46
2023/05/27 10:14:25;;;;;;;4.57;1.90;;;21.80;76.20;;;;;;5006984;28;20542;-44
2023/05/27 10:16:54;;;;;;;3.57;2.20;;;21.80;74.80;;;;;;5007641;28;20483;-46
2023/05/27 10:19:21;;;;;;;8.50;3.57;;;21.80;75.00;;;;;;5002548;28;20827;-46
2023/05/27 10:21:47;;;;;;;5.43;2.70;;;21.80;75.30;;;;;;5008415;28;20951;-46
2023/05/27 10:24:14;;;;;;;3.73;1.97;;;21.80;75.40;;;;;;5003553;28;20983;-44
2023/05/27 10:26:43;;;;;;;4.40;2.23;;;21.80;75.50;;;;;;5009874;28;20454;-46
2023/05/27 10:29:11;;;;;;;2.90;2.03;;;21.90;75.50;;;;;;4999073;28;20491;-46
2023/05/27 10:31:45;;;;;;;3.37;2.30;;;21.90;75.40;;;;;;5005903;28;20460;-46
2023/05/27 10:34:12;;;;;;;3.07;2.20;;;21.80;74.90;;;;;;5003471;28;20451;-47
2023/05/27 10:36:39;;;;;;;4.40;2.43;;;21.80;75.00;;;;;;5004953;28;20484;-46
2023/05/27 10:39:08;;;;;;;3.43;2.60;;;21.80;74.30;;;;;;5002408;28;20493;-47
2023/05/27 10:41:44;;;;;;;5.47;2.80;;;21.80;74.60;;;;;;5006554;28;20499;-46
2023/05/27 10:44:11;;;;;;;3.30;2.60;;;21.90;74.90;;;;;;5006665;28;20459;-47
2023/05/27 10:46:42;;;;;;;7.90;2.97;;;21.80;74.90;;;;;;5004171;28;20530;-46
2023/05/27 10:49:15;;;;;;;5.85;3.45;;;21.80;75.00;;;;;;5006545;28;20464;-45
2023/05/27 10:51:43;;;;;;;6.10;2.75;;;21.90;75.10;;;;;;5008981;28;20196;-46
2023/05/27 10:54:10;;;;;;;4.15;2.92;;;21.80;75.20;;;;;;5000857;28;20227;-47
2023/05/27 10:56:37;;;;;;;5.80;2.83;;;21.90;75.40;;;;;;5004512;28;20310;-46
2023/05/27 10:59:11;;;;;;;4.50;2.60;;;21.90;75.60;;;;;;5006748;28;20460;-47
2023/05/27 11:01:38;;;;;;;3.20;2.57;;;21.90;75.70;;;;;;5010543;28;20455;-45
2023/05/27 11:04:08;;;;;;;4.67;2.50;;;21.90;74.80;;;;;;5007892;28;21073;-46
2023/05/27 11:06:35;;;;;;;3.17;2.47;;;21.90;75.10;;;;;;5000217;28;20476;-46
2023/05/27 11:09:05;;;;;;;6.28;4.20;;;21.90;75.50;;;;;;5003468;28;20859;-46
2023/05/27 11:11:31;;;;;;;4.33;3.17;;;21.80;75.40;;;;;;5004912;28;20204;-45
2023/05/27 11:13:58;;;;;;;5.20;2.90;;;21.80;75.40;;;;;;5007780;28;20455;-46
2023/05/27 11:16:26;;;;;;;5.57;2.37;;;21.90;75.00;;;;;;5009624;28;20487;-46
2023/05/27 11:18:53;;;;;;;2.80;2.60;;;22.00;75.50;;;;;;5006869;28;20506;-46
2023/05/27 11:21:20;;;;;;;4.97;2.90;;;21.90;75.50;;;;;;5008318;28;20490;-46
2023/05/27 11:23:48;;;;;;;6.18;3.65;;;21.90;75.50;;;;;;5007932;28;20534;-48
2023/05/27 11:26:16;;;;;;;11.73;4.40;;;21.90;75.50;;;;;;5009350;28;20201;-45
2023/05/27 11:28:47;;;;;;;12.67;4.90;;;21.90;74.90;;;;;;5011434;28;20447;-46
2023/05/27 11:31:14;;;;;;;24.03;5.80;;;21.90;75.30;;;;;;5006030;28;20531;-47
2023/05/27 11:33:44;;;;;;;13.67;5.53;;;21.90;75.40;;;;;;5006754;28;20546;-47
2023/05/27 11:36:13;;;;;;;14.10;6.20;;;21.90;75.50;;;;;;5011695;28;20554;-47
2023/05/27 11:38:47;;;;;;;19.70;7.07;;;22.00;75.70;;;;;;5007440;28;20477;-47
2023/05/27 11:41:14;;;;;;;19.33;6.85;;;21.90;75.60;;;;;;5006838;28;20553;-47
2023/05/27 11:43:48;;;;;;;15.97;7.10;;;21.90;75.60;;;;;;5011315;28;20197;-47
2023/05/27 11:46:15;;;;;;;23.77;8.07;;;21.90;75.70;;;;;;5006144;28;20471;-46
2023/05/27 11:48:43;;;;;;;13.20;6.70;;;21.90;75.90;;;;;;5007929;28;20455;-45
2023/05/27 11:51:11;;;;;;;17.60;6.60;;;21.90;75.00;;;;;;5005682;28;20467;-47
2023/05/27 11:53:40;;;;;;;18.73;7.93;;;21.90;75.30;;;;;;5005048;28;20482;-47
2023/05/27 11:56:07;;;;;;;14.73;7.47;;;21.90;75.50;;;;;;5003589;28;20538;-47
2023/05/27 11:58:34;;;;;;;27.80;8.20;;;21.80;75.40;;;;;;5011528;28;20517;-46
2023/05/27 12:01:00;;;;;;;16.80;7.60;;;21.90;75.20;;;;;;5003824;28;20478;-46
2023/05/27 12:03:27;;;;;;;18.80;8.33;;;21.90;74.80;;;;;;5005510;28;20464;-46
2023/05/27 12:05:55;;;;;;;23.80;8.43;;;21.90;75.20;;;;;;5009279;28;20784;-45
2023/05/27 12:08:22;;;;;;;18.20;8.53;;;21.90;75.40;;;;;;5006947;28;20826;-48
2023/05/27 12:10:53;;;;;;;14.73;7.90;;;21.90;75.20;;;;;;5010175;28;20455;-46
2023/05/27 12:13:20;;;;;;;19.47;8.30;;;21.90;74.90;;;;;;5009007;28;20522;-46
2023/05/27 12:15:47;;;;;;;19.87;7.50;;;21.90;75.30;;;;;;5006674;28;20784;-46
2023/05/27 12:18:14;;;;;;;24.80;8.70;;;21.90;75.50;;;;;;5003756;28;20459;-47
2023/05/27 12:20:40;;;;;;;29.07;9.10;;;21.90;75.70;;;;;;5004691;28;20523;-48
2023/05/27 12:23:08;;;;;;;21.77;9.07;;;22.00;76.00;;;;;;5006856;28;20965;-48
2023/05/27 12:25:35;;;;;;;18.63;8.37;;;21.90;76.00;;;;;;5005343;28;20874;-46
2023/05/27 12:28:02;;;;;;;19.33;9.27;;;21.90;76.10;;;;;;5008892;28;20459;-49
2023/05/27 12:30:28;;;;;;;20.07;8.60;;;21.90;76.40;;;;;;5005450;28;20464;-51
2023/05/27 12:32:55;;;;;;;16.97;9.17;;;22.10;76.40;;;;;;5001263;28;20456;-57
2023/05/27 12:35:22;;;;;;;24.93;10.10;;;21.90;75.70;;;;;;5001969;28;20550;-54
2023/05/27 12:37:48;;;;;;;20.30;9.77;;;21.90;76.20;;;;;;5003635;28;21028;-55
2023/05/27 12:40:16;;;;;;;17.37;8.90;;;22.00;76.10;;;;;;5009479;28;20452;-54
2023/05/27 12:42:43;;;;;;;25.93;9.93;;;22.00;76.70;;;;;;5009929;28;20485;-59
2023/05/27 12:45:10;;;;;;;23.83;9.60;;;22.00;77.00;;;;;;5005548;28;20875;-56
2023/05/27 12:47:37;;;;;;;24.37;9.10;;;22.00;76.80;;;;;;5000060;28;20471;-57
2023/05/27 12:50:05;;;;;;;19.90;8.20;;;21.90;76.00;;;;;;5005812;28;20466;-58
2023/05/27 12:52:32;;;;;;;20.80;9.10;;;22.00;76.50;;;;;;5007370;28;20483;-59
2023/05/27 12:54:59;;;;;;;20.67;8.70;;;22.00;76.80;;;;;;5005412;28;20451;-58
2023/05/27 12:57:27;;;;;;;19.33;9.50;;;22.00;76.50;;;;;;5005428;28;20476;-57
2023/05/27 12:59:54;;;;;;;18.73;9.00;;;22.00;76.20;;;;;;5006617;28;21012;-58
2023/05/27 13:02:20;;;;;;;22.83;9.37;;;22.20;76.70;;;;;;5001445;28;20887;-56
2023/05/27 13:04:47;;;;;;;16.97;8.67;;;22.10;76.60;;;;;;5009184;28;20471;-56
2023/05/27 13:07:13;;;;;;;17.17;8.67;;;22.10;76.80;;;;;;5006482;28;20797;-55
2023/05/27 13:09:41;;;;;;;16.20;8.97;;;22.20;76.70;;;;;;5006261;28;20858;-53
2023/05/27 13:12:08;;;;;;;17.90;9.37;;;22.10;76.10;;;;;;5007268;28;20472;-53
2023/05/27 13:14:36;;;;;;;18.83;9.27;;;22.20;76.40;;;;;;5004904;28;20584;-52
2023/05/27 13:17:03;;;;;;;25.73;9.93;;;22.20;76.60;;;;;;5006591;28;20573;-51
2023/05/27 13:19:29;;;;;;;22.00;8.80;;;22.20;76.60;;;;;;5009139;28;20471;-56
2023/05/27 13:21:56;;;;;;;20.57;9.60;;;22.20;76.50;;;;;;5007938;28;20959;-55
2023/05/27 13:24:23;;;;;;;15.70;8.77;;;22.40;76.60;;;;;;5004985;28;20547;-56
2023/05/27 13:26:50;;;;;;;15.47;8.70;;;22.30;76.40;;;;;;5008925;28;20472;-57
2023/05/27 13:29:17;;;;;;;18.50;8.33;;;22.40;76.00;;;;;;5008642;28;20514;-56
2023/05/27 13:31:46;;;;;;;16.40;7.87;;;22.30;76.00;;;;;;5004335;28;20963;-54
2023/05/27 13:34:12;;;;;;;17.60;8.13;;;22.30;76.00;;;;;;4998143;28;20712;-53
2023/05/27 13:36:39;;;;;;;12.97;8.40;;;22.40;75.90;;;;;;5002179;28;20487;-59
2023/05/27 13:39:05;;;;;;;18.73;8.40;;;22.40;75.10;;;;;;4998980;28;20462;-55
2023/05/27 13:41:32;;;;;;;15.17;7.37;;;22.50;75.40;;;;;;5006963;28;20979;-55
2023/05/27 13:43:59;;;;;;;14.70;7.00;;;22.50;75.30;;;;;;5007891;28;20476;-57
2023/05/27 13:46:26;;;;;;;11.50;6.70;;;22.50;75.50;;;;;;5000769;28;20463;-55
2023/05/27 13:48:54;;;;;;;13.90;7.03;;;22.50;75.70;;;;;;5008733;28;20455;-58
2023/05/27 13:51:20;;;;;;;12.13;7.50;;;22.60;75.90;;;;;;5004694;28;20478;-60
2023/05/27 13:53:48;;;;;;;16.47;7.60;;;22.60;75.80;;;;;;5003273;28;20539;-52
2023/05/27 13:56:15;;;;;;;14.73;6.27;;;22.60;75.80;;;;;;5007200;28;20466;-52
2023/05/27 13:58:41;;;;;;;10.03;6.03;;;22.70;75.80;;;;;;5005629;28;20545;-53
2023/05/27 14:01:08;;;;;;;15.50;6.00;;;22.70;75.70;;;;;;5002595;28;21741;-54
2023/05/27 14:03:35;;;;;;;10.60;6.97;;;22.70;75.60;;;;;;5003330;28;20869;-53
2023/05/27 14:06:03;;;;;;;13.27;6.87;;;22.70;75.70;;;;;;5000638;28;20463;-52
2023/05/27 14:08:30;;;;;;;15.03;6.50;;;22.60;75.00;;;;;;5000923;28;20464;-53